Time;durP1;ratioP1;P1;durP2;ratioP2;P2;SDS_P1;SDS_P2;PMS_P1;PMS_P2;Temp;Humidity;BMP_temperature;BMP_pressure;BME280_temperature;BME280_humidity;BME280_pressure;Samples;Min_cycle;Max_cycle;Signal;HPM_P1;HPM_P2
2020/12/06 00:01:36;;;;;;;38.43;25.90;;;3.20;99.90;;;0.97;100.00;99070.22;5028379;27;99999;-62
2020/12/06 00:04:04;;;;;;;35.83;24.20;;;3.10;99.90;;;1.13;100.00;99062.72;5028430;27;99967;-63
2020/12/06 00:06:31;;;;;;;37.63;24.73;;;3.10;99.90;;;1.02;100.00;99079.41;5028416;27;100025;-61
2020/12/06 00:08:58;;;;;;;38.77;26.27;;;3.10;99.90;;;1.10;100.00;99065.63;5028159;27;101241;-61
2020/12/06 00:11:24;;;;;;;32.53;25.27;;;3.10;99.90;;;1.17;100.00;99058.88;5028084;27;100038;-62
2020/12/06 00:13:51;;;;;;;35.03;25.63;;;3.00;99.90;;;1.23;100.00;99063.63;5028171;27;100113;-61
2020/12/06 00:16:20;;;;;;;33.70;24.57;;;3.20;99.90;;;1.24;100.00;99060.00;5025490;27;102845;-61
2020/12/06 00:18:48;;;;;;;34.20;25.57;;;4.50;99.90;;;0.85;100.00;99053.66;5026078;27;101469;-61
2020/12/06 00:21:17;;;;;;;29.63;21.67;;;3.10;99.90;;;0.78;100.00;99060.38;5027439;27;99955;-61
2020/12/06 00:23:43;;;;;;;44.17;26.07;;;3.00;99.90;;;0.92;100.00;99054.81;5028477;27;100410;-61
2020/12/06 00:26:12;;;;;;;31.20;22.87;;;3.00;99.90;;;0.84;100.00;99049.34;5027843;27;100977;-62
2020/12/06 00:28:38;;;;;;;31.57;23.17;;;3.00;99.90;;;0.65;100.00;99049.19;5027684;27;101398;-61
2020/12/06 00:31:05;;;;;;;32.73;23.00;;;3.00;99.90;;;0.91;100.00;99047.88;5027684;27;100020;-61
2020/12/06 00:33:32;;;;;;;35.90;24.70;;;3.00;99.90;;;1.00;100.00;99055.00;5028302;27;100209;-61
2020/12/06 00:35:58;;;;;;;36.93;25.73;;;2.90;99.90;;;0.93;100.00;99043.31;5025126;27;101838;-62
2020/12/06 00:38:25;;;;;;;37.00;24.20;;;2.90;99.90;;;1.17;100.00;99036.94;5027510;27;100731;-61
2020/12/06 00:40:51;;;;;;;41.03;27.33;;;2.90;99.90;;;0.95;100.00;99033.50;5027106;27;100120;-61
2020/12/06 00:43:18;;;;;;;37.50;25.13;;;3.00;99.90;;;0.50;100.00;99035.47;5027587;27;99897;-61
2020/12/06 00:45:45;;;;;;;32.93;22.90;;;3.00;99.90;;;0.96;100.00;99027.25;5041791;27;101767;-62
2020/12/06 00:48:11;;;;;;;30.70;22.57;;;2.90;99.90;;;1.28;100.00;99027.16;5041693;27;102527;-62
2020/12/06 00:50:38;;;;;;;34.00;23.63;;;2.80;99.90;;;1.48;100.00;99033.41;5025564;27;100183;-61
2020/12/06 00:53:05;;;;;;;31.87;24.30;;;2.90;99.90;;;1.31;100.00;99029.56;5042379;27;100104;-61
2020/12/06 00:55:31;;;;;;;34.03;25.23;;;2.90;99.90;;;1.17;100.00;99026.41;5026893;27;101541;-61
2020/12/06 00:57:59;;;;;;;36.10;24.73;;;2.80;99.90;;;1.55;100.00;99031.06;5042278;27;103142;-61
2020/12/06 01:00:26;;;;;;;37.30;25.47;;;2.80;99.90;;;1.42;100.00;99037.38;5027009;27;100825;-61
2020/12/06 01:02:53;;;;;;;37.70;25.73;;;2.90;99.90;;;1.76;100.00;99023.91;5027904;27;100080;-61
2020/12/06 01:05:19;;;;;;;38.47;26.60;;;2.80;99.90;;;1.91;100.00;99008.56;5041047;27;102599;-62
2020/12/06 01:07:46;;;;;;;33.93;24.70;;;2.90;99.90;;;1.89;100.00;99010.50;5027397;27;100735;-62
2020/12/06 01:10:13;;;;;;;37.27;24.80;;;2.90;99.90;;;1.89;100.00;98997.31;5027317;27;100080;-62
2020/12/06 01:12:40;;;;;;;35.60;24.53;;;3.00;99.90;;;2.04;100.00;99001.25;5026891;27;100058;-62
2020/12/06 01:15:09;;;;;;;34.50;25.60;;;3.10;99.90;;;2.13;100.00;99003.91;5026465;27;101479;-63
2020/12/06 01:17:37;;;;;;;37.03;26.97;;;3.10;99.90;;;2.01;100.00;98997.06;5027513;27;100369;-62
2020/12/06 01:20:06;;;;;;;32.67;23.70;;;3.10;99.90;;;2.17;100.00;98999.19;5026139;27;99914;-62
2020/12/06 01:22:32;;;;;;;33.67;24.83;;;3.30;99.90;;;2.01;100.00;99009.41;5027115;27;100356;-62
2020/12/06 01:24:58;;;;;;;36.10;26.57;;;3.30;99.90;;;2.16;100.00;99005.44;5025856;27;101539;-63
2020/12/06 01:27:25;;;;;;;34.67;25.53;;;3.20;99.90;;;2.12;100.00;99010.13;5027376;27;100951;-63
2020/12/06 01:29:52;;;;;;;30.53;22.50;;;3.40;99.90;;;2.11;100.00;99007.63;5026552;27;100122;-62
2020/12/06 01:32:18;;;;;;;33.53;25.27;;;3.30;99.90;;;2.06;100.00;99007.22;5027396;27;100032;-62
2020/12/06 01:34:46;;;;;;;35.73;24.90;;;3.10;99.90;;;2.04;100.00;99006.53;5026181;27;101286;-62
2020/12/06 01:37:12;;;;;;;37.33;24.43;;;3.40;99.90;;;2.08;100.00;99006.13;5026739;27;100819;-62
2020/12/06 01:39:39;;;;;;;30.67;23.20;;;3.50;99.90;;;2.04;100.00;99003.88;5027249;27;100327;-62
2020/12/06 01:42:05;;;;;;;33.83;24.23;;;3.50;99.90;;;2.07;100.00;99003.63;5026598;27;99922;-62
2020/12/06 01:44:32;;;;;;;31.07;23.17;;;3.50;99.90;;;2.05;100.00;98995.84;5026473;27;100522;-63
2020/12/06 01:46:58;;;;;;;29.33;22.93;;;3.50;99.90;;;2.04;100.00;98985.41;5026294;27;101118;-64
2020/12/06 01:49:35;;;;;;;32.53;22.97;;;3.40;99.90;;;2.20;100.00;98987.53;5026451;27;100350;-62
2020/12/06 01:52:05;;;;;;;32.10;23.83;;;3.50;99.90;;;2.11;100.00;98989.16;5026894;27;100041;-63
2020/12/06 01:54:34;;;;;;;34.53;23.13;;;3.30;99.90;;;2.13;100.00;98982.78;5026010;27;100565;-63
2020/12/06 01:57:00;;;;;;;28.60;22.07;;;3.50;99.90;;;2.12;100.00;98978.47;5026758;27;100095;-63
2020/12/06 01:59:27;;;;;;;28.90;22.47;;;3.40;99.90;;;2.04;100.00;98973.06;5026562;27;100312;-63
2020/12/06 02:01:57;;;;;;;32.87;23.67;;;3.60;99.90;;;1.99;100.00;98969.16;5026727;27;100259;-62
2020/12/06 02:04:32;;;;;;;33.63;23.00;;;3.50;99.90;;;1.98;100.00;98975.41;5025566;27;101270;-64
2020/12/06 02:07:00;;;;;;;29.77;21.53;;;3.50;99.90;;;2.04;100.00;98973.06;5024180;27;101369;-62
2020/12/06 02:09:30;;;;;;;31.20;22.40;;;3.40;99.90;;;2.06;100.00;98972.94;5026894;27;99986;-62
2020/12/06 02:11:57;;;;;;;29.80;22.17;;;3.60;99.90;;;2.07;100.00;98964.03;5026573;27;100073;-61
2020/12/06 02:14:24;;;;;;;30.03;22.07;;;3.50;99.90;;;2.25;100.00;98975.56;5026184;27;101059;-62
2020/12/06 02:16:54;;;;;;;30.27;21.43;;;3.50;99.90;;;2.29;100.00;98970.88;5026275;27;100098;-62
2020/12/06 02:19:20;;;;;;;33.00;22.53;;;3.60;99.90;;;2.22;100.00;98970.59;5026169;27;100371;-62
2020/12/06 02:21:48;;;;;;;27.30;21.17;;;3.50;99.90;;;2.26;100.00;98969.31;5026806;27;99871;-62
2020/12/06 02:24:18;;;;;;;30.53;21.83;;;3.60;99.90;;;2.08;100.00;98960.44;5025789;27;100840;-62
2020/12/06 02:26:47;;;;;;;29.53;21.47;;;3.60;99.90;;;2.11;100.00;98966.25;5026043;27;101086;-62
2020/12/06 02:29:15;;;;;;;28.70;20.07;;;3.60;99.90;;;2.20;100.00;98961.97;5026544;27;100134;-63
2020/12/06 02:31:42;;;;;;;29.50;21.50;;;3.50;99.90;;;2.06;100.00;98963.22;5026244;27;100118;-62
2020/12/06 02:34:10;;;;;;;31.93;21.13;;;3.50;99.90;;;2.08;100.00;98961.28;5026448;27;100719;-62
2020/12/06 02:36:38;;;;;;;25.67;19.77;;;3.60;99.90;;;1.94;100.00;98956.38;5025722;27;100388;-62
2020/12/06 02:39:09;;;;;;;28.40;21.30;;;3.60;99.90;;;1.90;100.00;98949.69;5026637;27;100112;-62
2020/12/06 02:41:38;;;;;;;26.87;21.10;;;3.40;99.90;;;1.74;100.00;98947.56;5026110;27;100208;-62
2020/12/06 02:44:06;;;;;;;30.10;22.30;;;3.50;99.90;;;1.86;100.00;98945.66;5026075;27;100753;-62
2020/12/06 02:46:33;;;;;;;30.40;23.50;;;3.50;99.90;;;1.82;100.00;98944.28;5029858;27;100911;-62
2020/12/06 02:49:00;;;;;;;28.23;21.77;;;3.50;99.90;;;1.80;100.00;98949.69;5029331;27;100011;-62
2020/12/06 02:51:27;;;;;;;28.50;20.63;;;3.50;99.90;;;1.79;100.00;98936.63;5029219;27;100023;-62
2020/12/06 02:53:54;;;;;;;32.37;21.40;;;3.60;99.90;;;1.78;100.00;98937.59;5029842;27;101154;-63
2020/12/06 02:56:22;;;;;;;31.60;22.27;;;3.20;99.90;;;1.76;100.00;98942.16;5028874;27;99972;-63
2020/12/06 02:58:48;;;;;;;32.47;23.00;;;3.40;99.90;;;1.76;100.00;98934.25;5029875;27;100169;-63
2020/12/06 03:01:15;;;;;;;32.60;23.47;;;3.40;99.90;;;1.75;100.00;98941.34;5029281;27;100359;-62
2020/12/06 03:03:41;;;;;;;28.83;20.87;;;3.30;99.90;;;1.72;100.00;98943.44;5028959;27;99936;-63
2020/12/06 03:06:09;;;;;;;28.73;20.83;;;3.40;99.90;;;1.86;100.00;98943.03;5028911;27;101233;-62
2020/12/06 03:08:37;;;;;;;30.20;22.00;;;3.40;99.90;;;1.74;100.00;98949.38;5028977;27;100725;-62
2020/12/06 03:11:05;;;;;;;28.03;19.60;;;3.40;99.90;;;1.78;100.00;98948.97;5029177;27;100077;-62
2020/12/06 03:13:32;;;;;;;28.60;21.20;;;3.30;99.90;;;1.66;100.00;98946.59;5029142;27;101373;-62
2020/12/06 03:15:59;;;;;;;31.53;20.30;;;3.20;99.90;;;1.51;100.00;98935.56;5028590;27;100643;-62
2020/12/06 03:18:25;;;;;;;28.53;20.63;;;3.40;99.90;;;1.50;100.00;98935.72;5029409;27;100106;-62
2020/12/06 03:20:52;;;;;;;34.53;21.27;;;3.30;99.90;;;1.46;100.00;98926.41;5029391;27;100060;-62
2020/12/06 03:23:18;;;;;;;32.20;21.60;;;3.30;99.90;;;1.51;100.00;98932.09;5028388;27;101498;-62
2020/12/06 03:25:44;;;;;;;29.17;19.80;;;3.30;99.90;;;1.78;100.00;98922.59;5029008;27;100390;-61
2020/12/06 03:28:11;;;;;;;29.57;19.93;;;3.30;99.90;;;1.49;100.00;98921.69;5029224;27;100082;-62
2020/12/06 03:30:38;;;;;;;26.83;19.60;;;3.40;99.90;;;1.81;100.00;98913.59;5028352;27;100247;-62
2020/12/06 03:33:04;;;;;;;26.30;19.13;;;3.20;99.90;;;1.78;100.00;98912.06;5028180;27;101280;-62
2020/12/06 03:35:31;;;;;;;27.60;19.60;;;3.20;99.90;;;1.60;100.00;98912.88;5027873;27;101262;-62
2020/12/06 03:37:57;;;;;;;30.17;21.10;;;3.30;99.90;;;1.69;100.00;98907.59;5029089;27;100252;-63
2020/12/06 03:40:24;;;;;;;28.33;20.07;;;3.20;99.90;;;1.71;100.00;98910.13;5028654;27;100223;-62
2020/12/06 03:42:51;;;;;;;29.93;20.63;;;3.20;99.90;;;1.83;100.00;98914.31;5028972;27;100207;-62
2020/12/06 03:45:18;;;;;;;29.93;21.70;;;3.30;99.90;;;1.94;100.00;98908.91;5028409;27;100421;-62
2020/12/06 03:47:45;;;;;;;27.80;20.93;;;3.40;99.90;;;2.12;100.00;98907.22;5029218;27;100017;-62
2020/12/06 03:50:12;;;;;;;30.33;19.83;;;3.40;99.90;;;2.08;100.00;98902.38;5029115;27;100605;-62
2020/12/06 03:52:38;;;;;;;28.27;20.47;;;3.30;99.90;;;2.11;100.00;98896.81;5029276;27;100632;-63
2020/12/06 03:55:05;;;;;;;30.00;21.33;;;3.50;99.90;;;2.31;100.00;98890.56;5027806;27;100305;-62
2020/12/06 03:57:32;;;;;;;26.20;19.53;;;3.50;99.90;;;2.16;100.00;98895.44;5027311;27;99961;-62
2020/12/06 03:59:58;;;;;;;28.93;19.53;;;3.60;99.90;;;2.25;100.00;98899.03;5027745;27;100257;-62
2020/12/06 04:02:26;;;;;;;31.37;20.47;;;3.60;99.90;;;2.31;100.00;98903.78;5028051;27;101796;-62
2020/12/06 04:04:53;;;;;;;28.67;20.73;;;3.60;99.90;;;2.54;100.00;98899.03;5027851;27;100376;-62
2020/12/06 04:07:19;;;;;;;24.43;19.07;;;3.60;99.90;;;2.50;100.00;98902.91;5028532;27;100285;-63
2020/12/06 04:09:46;;;;;;;27.87;19.93;;;3.50;99.90;;;2.56;100.00;98898.88;5028812;27;100048;-62
2020/12/06 04:12:12;;;;;;;26.90;19.47;;;3.60;99.90;;;2.65;100.00;98906.78;5025558;27;101744;-62
2020/12/06 04:14:39;;;;;;;26.50;19.90;;;3.70;99.90;;;2.67;100.00;98907.50;5028695;27;100552;-62
2020/12/06 04:17:05;;;;;;;25.83;19.27;;;3.60;99.90;;;2.61;100.00;98896.63;5028416;27;100466;-62
2020/12/06 04:19:32;;;;;;;28.00;20.10;;;3.80;99.90;;;2.56;100.00;98897.09;5028313;27;100219;-61
2020/12/06 04:21:59;;;;;;;26.63;19.93;;;3.70;99.90;;;2.51;100.00;98899.31;5027135;27;101446;-62
2020/12/06 04:24:26;;;;;;;28.73;20.50;;;3.90;99.90;;;2.49;100.00;98885.41;5027760;27;100576;-62
2020/12/06 04:26:52;;;;;;;24.20;18.30;;;3.80;99.90;;;2.45;100.00;98884.88;5028263;27;100244;-62
2020/12/06 04:29:18;;;;;;;27.30;19.57;;;3.90;99.90;;;2.67;100.00;98881.06;5028046;27;100316;-62
2020/12/06 04:31:45;;;;;;;25.73;19.10;;;3.90;99.90;;;2.73;100.00;98877.84;5027605;27;101518;-62
2020/12/06 04:34:11;;;;;;;24.23;18.77;;;3.80;99.90;;;2.70;100.00;98867.59;5027545;27;101299;-62
2020/12/06 04:36:37;;;;;;;25.20;19.23;;;3.80;99.90;;;2.89;100.00;98866.69;5027867;27;100292;-62
2020/12/06 04:39:05;;;;;;;25.97;19.27;;;4.10;99.90;;;2.89;100.00;98858.75;5028196;27;99992;-62
2020/12/06 04:41:31;;;;;;;27.10;19.43;;;4.20;99.90;;;3.04;100.00;98861.78;5027457;27;101007;-62
2020/12/06 04:43:58;;;;;;;27.70;20.10;;;4.10;99.90;;;3.03;100.00;98865.41;5027541;27;100564;-62
2020/12/06 04:46:27;;;;;;;27.00;19.23;;;4.10;99.90;;;3.14;100.00;98846.72;5026787;27;99856;-62
2020/12/06 04:49:14;;;;;;;26.30;18.47;;;4.20;99.90;;;3.10;100.00;98843.50;5027492;27;100054;-62
2020/12/06 04:51:43;;;;;;;21.93;18.53;;;4.20;99.90;;;3.25;100.00;98860.56;5027774;27;100752;-62
2020/12/06 04:54:11;;;;;;;26.60;18.90;;;4.30;99.90;;;3.23;100.00;98857.22;5027090;27;100359;-62
2020/12/06 04:56:39;;;;;;;23.93;17.50;;;5.10;99.90;;;3.26;100.00;98858.75;5027561;27;100172;-63
2020/12/06 04:59:07;;;;;;;25.47;17.97;;;4.30;99.90;;;3.11;100.00;98857.56;5027124;27;100450;-62
2020/12/06 05:01:35;;;;;;;26.40;18.50;;;4.40;99.90;;;3.05;100.00;98861.63;5027299;27;101096;-61
2020/12/06 05:04:09;;;;;;;22.97;18.40;;;4.40;99.90;;;3.10;100.00;98859.38;5027683;27;100429;-62
2020/12/06 05:06:39;;;;;;;26.90;18.20;;;4.40;99.90;;;3.10;100.00;98861.19;5027427;27;100214;-61
2020/12/06 05:09:10;;;;;;;26.77;19.77;;;4.40;99.90;;;3.12;100.00;98867.16;5026670;27;100036;-62
2020/12/06 05:11:37;;;;;;;22.93;17.83;;;4.30;99.90;;;3.13;100.00;98871.47;5026571;27;101298;-63
2020/12/06 05:14:05;;;;;;;21.97;17.70;;;4.50;99.90;;;3.18;100.00;98863.94;5027162;27;101318;-62
2020/12/06 05:16:33;;;;;;;23.30;17.60;;;4.40;99.90;;;3.11;100.00;98860.22;5026848;27;100200;-62
2020/12/06 05:19:00;;;;;;;24.57;18.60;;;4.30;99.90;;;3.11;100.00;98858.41;5027229;27;100127;-62
2020/12/06 05:21:34;;;;;;;25.97;19.43;;;4.30;99.90;;;3.09;100.00;98856.91;5027275;27;100694;-62
2020/12/06 05:24:02;;;;;;;23.10;17.87;;;4.30;99.90;;;3.05;100.00;98860.81;5026311;27;101082;-62
2020/12/06 05:26:30;;;;;;;24.20;18.37;;;4.30;99.90;;;3.10;100.00;98854.09;5027320;27;100131;-62
2020/12/06 05:28:57;;;;;;;24.93;18.40;;;4.30;99.90;;;3.03;100.00;98860.09;5027536;27;100062;-62
2020/12/06 05:31:24;;;;;;;24.07;17.70;;;4.20;99.90;;;3.07;100.00;98861.50;5026489;27;101198;-62
2020/12/06 05:33:52;;;;;;;22.87;19.10;;;4.20;99.90;;;3.13;100.00;98869.66;5027280;27;100778;-62
2020/12/06 05:36:18;;;;;;;22.87;18.40;;;4.30;99.90;;;2.98;100.00;98865.81;5026657;27;100463;-62
2020/12/06 05:38:45;;;;;;;25.97;19.93;;;4.70;99.90;;;2.93;100.00;98865.44;5027266;27;100098;-62
2020/12/06 05:41:12;;;;;;;27.47;20.63;;;4.30;99.90;;;2.98;100.00;98859.69;5026591;27;101376;-62
2020/12/06 05:43:40;;;;;;;25.67;18.23;;;4.30;99.90;;;3.05;100.00;98858.16;5026740;27;100258;-62
2020/12/06 05:46:07;;;;;;;22.67;17.60;;;4.10;99.90;;;3.16;100.00;98858.81;5026634;27;100098;-63
2020/12/06 05:48:34;;;;;;;20.77;16.27;;;4.20;99.90;;;3.23;100.00;98857.22;5027077;27;100161;-62
2020/12/06 05:51:01;;;;;;;23.80;18.47;;;4.20;99.90;;;3.23;100.00;98857.22;5026071;27;101513;-62
2020/12/06 05:53:29;;;;;;;22.73;18.07;;;4.20;99.90;;;3.31;100.00;98851.22;5027110;27;100665;-62
2020/12/06 05:56:04;;;;;;;22.77;18.00;;;4.20;99.90;;;3.36;100.00;98848.94;5024593;27;100186;-62
2020/12/06 05:58:32;;;;;;;25.07;18.80;;;5.20;99.90;;;3.38;100.00;98859.38;5026660;27;100075;-63
2020/12/06 06:01:00;;;;;;;28.23;19.37;;;4.30;99.90;;;3.54;100.00;98860.41;5025277;27;100826;-62
2020/12/06 06:03:34;;;;;;;26.17;19.77;;;4.40;99.90;;;3.49;100.00;98854.72;5026574;27;100619;-62
2020/12/06 06:06:04;;;;;;;23.20;18.60;;;4.50;99.90;;;3.45;100.00;98858.66;5026546;27;99982;-62
2020/12/06 06:08:33;;;;;;;26.00;19.57;;;4.50;99.90;;;3.67;100.00;98861.88;5026826;27;99890;-62
2020/12/06 06:11:22;;;;;;;26.13;18.10;;;4.80;99.90;;;3.71;100.00;98861.41;5025853;27;100833;-63
2020/12/06 06:13:56;;;;;;;25.20;19.57;;;4.30;99.90;;;3.82;100.00;98855.94;5026264;27;101296;-62
2020/12/06 06:16:26;;;;;;;28.80;20.57;;;4.60;99.90;;;3.74;100.00;98847.88;5026079;27;100118;-62
2020/12/06 06:18:54;;;;;;;26.47;19.97;;;4.60;99.90;;;3.90;100.00;98868.41;5026772;27;99983;-63
2020/12/06 06:21:26;;;;;;;25.30;19.97;;;4.70;99.90;;;4.00;100.00;98863.03;5029994;27;101320;-63
2020/12/06 06:23:54;;;;;;;25.67;19.97;;;4.80;99.90;;;4.10;100.00;98864.59;5029144;27;100948;-64
2020/12/06 06:26:25;;;;;;;25.10;20.63;;;4.80;99.90;;;4.09;100.00;98865.59;5030015;27;100042;-63
2020/12/06 06:28:53;;;;;;;26.70;19.53;;;4.70;99.90;;;4.13;100.00;98866.97;5029774;27;100266;-63
2020/12/06 06:31:22;;;;;;;26.27;20.43;;;4.90;99.90;;;4.27;100.00;98871.72;5029528;27;101550;-63
2020/12/06 06:33:50;;;;;;;26.97;19.47;;;4.80;99.90;;;4.06;100.00;98873.84;5029804;27;101010;-64
2020/12/06 06:36:21;;;;;;;27.40;20.47;;;4.90;99.90;;;3.96;100.00;98875.72;5029937;27;99958;-63
2020/12/06 06:38:51;;;;;;;24.30;18.10;;;4.90;99.90;;;4.20;100.00;98875.94;5030105;27;99963;-64
2020/12/06 06:41:18;;;;;;;24.70;18.67;;;4.90;99.90;;;3.85;100.00;98882.06;5029406;27;101495;-63
2020/12/06 06:43:44;;;;;;;26.63;20.53;;;4.90;99.90;;;3.87;100.00;98868.69;5030396;27;100756;-63
2020/12/06 06:46:14;;;;;;;25.70;19.47;;;4.80;99.90;;;3.73;100.00;98879.78;5029503;27;100284;-63
2020/12/06 06:48:45;;;;;;;24.63;19.30;;;4.80;99.90;;;3.62;100.00;98883.47;5029758;27;100129;-63
2020/12/06 06:51:19;;;;;;;25.17;20.23;;;4.90;99.90;;;3.88;100.00;98887.06;5028743;27;100583;-63
2020/12/06 06:53:46;;;;;;;26.63;19.03;;;4.80;99.90;;;3.87;100.00;98887.22;5029345;27;101831;-63
2020/12/06 06:56:17;;;;;;;23.13;19.70;;;4.80;99.90;;;4.02;100.00;98884.88;5029316;27;100054;-62
2020/12/06 06:58:46;;;;;;;29.87;19.97;;;4.90;99.90;;;3.91;100.00;98885.94;5028920;27;100114;-63
2020/12/06 07:01:21;;;;;;;28.60;20.80;;;4.80;99.90;;;3.90;100.00;98886.91;5028529;27;100430;-62
2020/12/06 07:03:50;;;;;;;25.30;21.23;;;4.80;99.90;;;3.50;100.00;98889.94;5028009;27;101407;-62
2020/12/06 07:06:48;;;;;;;29.30;21.80;;;4.80;99.90;;;3.40;100.00;98900.56;5026964;27;100161;-63
2020/12/06 07:09:17;;;;;;;32.73;22.27;;;4.70;99.90;;;3.66;100.00;98900.72;4962812;28;100845;-62
2020/12/06 07:11:44;;;;;;;22.97;18.97;;;4.90;99.90;;;3.49;100.00;98889.09;5012111;27;100629;-62
2020/12/06 07:14:11;;;;;;;26.23;19.77;;;4.70;99.90;;;3.74;100.00;98897.31;5026949;27;100930;-63
2020/12/06 07:16:38;;;;;;;25.63;20.17;;;4.90;99.90;;;3.76;100.00;98890.06;5026353;27;100131;-62
2020/12/06 07:19:05;;;;;;;27.13;20.47;;;4.60;99.90;;;3.67;100.00;98889.16;5025896;27;99987;-63
2020/12/06 07:21:33;;;;;;;22.73;19.40;;;4.70;99.90;;;3.49;100.00;98899.69;5025987;27;100791;-63
2020/12/06 07:24:00;;;;;;;27.43;21.23;;;4.90;99.90;;;3.70;100.00;98910.03;5026225;27;100539;-62
2020/12/06 07:26:27;;;;;;;26.70;20.77;;;4.80;99.90;;;3.66;100.00;98919.22;5026650;27;100053;-62
2020/12/06 07:28:55;;;;;;;28.50;21.30;;;4.80;99.90;;;3.55;100.00;98932.66;5027238;27;100362;-63
2020/12/06 07:31:22;;;;;;;27.23;20.73;;;4.70;99.90;;;3.64;100.00;98931.78;5026536;27;100707;-63
2020/12/06 07:33:49;;;;;;;27.70;20.00;;;4.70;99.90;;;3.77;100.00;98936.72;5027482;27;100273;-62
2020/12/06 07:36:17;;;;;;;26.77;20.03;;;4.80;99.90;;;3.88;100.00;98937.34;5025898;27;99789;-62
2020/12/06 07:38:44;;;;;;;25.40;19.33;;;4.80;99.90;;;4.02;100.00;98936.00;5027299;27;99943;-62
2020/12/06 07:41:11;;;;;;;28.03;19.70;;;5.10;99.90;;;3.87;100.00;98933.03;5024983;27;101320;-63
2020/12/06 07:43:38;;;;;;;26.33;20.27;;;4.80;99.90;;;3.85;100.00;98931.50;5026857;27;100104;-63
2020/12/06 07:46:14;;;;;;;25.63;19.73;;;5.00;99.90;;;3.91;100.00;98931.75;5025567;27;100228;-63
2020/12/06 07:48:47;;;;;;;23.97;18.73;;;5.00;99.90;;;3.93;100.00;98939.56;5026066;27;99983;-63
2020/12/06 07:51:14;;;;;;;25.40;19.13;;;4.90;99.90;;;3.90;100.00;98943.31;5026076;27;100706;-63
2020/12/06 07:53:46;;;;;;;27.77;20.57;;;4.90;99.90;;;4.03;100.00;98952.72;5026184;27;100262;-63
2020/12/06 07:56:18;;;;;;;27.50;21.73;;;5.10;99.90;;;4.12;100.00;98952.66;5025563;27;99959;-61
2020/12/06 07:58:56;;;;;;;27.27;19.47;;;5.10;99.90;;;4.05;100.00;98954.25;5026117;27;100312;-63
2020/12/06 08:01:22;;;;;;;24.83;19.37;;;5.00;99.90;;;3.97;100.00;98944.38;5023597;27;101537;-62
2020/12/06 08:03:53;;;;;;;27.10;20.53;;;5.10;99.90;;;4.07;100.00;98949.63;5025919;27;100485;-63
2020/12/06 08:06:21;;;;;;;25.00;19.43;;;5.20;99.90;;;4.16;100.00;98948.72;5025559;27;100022;-61
2020/12/06 08:08:51;;;;;;;25.23;19.97;;;5.40;99.90;;;4.23;100.00;98949.78;5025928;27;99938;-62
2020/12/06 08:11:20;;;;;;;24.83;20.43;;;5.20;99.90;;;4.31;100.00;98954.34;5024855;27;100979;-62
2020/12/06 08:13:50;;;;;;;27.93;22.00;;;5.30;99.90;;;4.50;100.00;98948.03;5025147;27;100474;-61
2020/12/06 08:16:18;;;;;;;26.50;21.13;;;5.50;99.90;;;4.44;100.00;98948.66;5026352;27;100552;-63
2020/12/06 08:18:45;;;;;;;26.43;21.77;;;5.40;99.90;;;4.55;100.00;98940.50;5025609;27;100199;-63
2020/12/06 08:21:11;;;;;;;24.20;21.37;;;6.40;99.90;;;4.55;100.00;98940.50;5025170;27;100579;-62
2020/12/06 08:23:40;;;;;;;28.47;22.20;;;5.80;99.90;;;4.53;100.00;98938.00;5026304;27;100317;-63
2020/12/06 08:26:07;;;;;;;29.17;20.97;;;5.70;99.90;;;4.52;100.00;98930.19;5025918;27;100130;-62
2020/12/06 08:28:34;;;;;;;24.77;20.07;;;5.70;99.90;;;4.42;100.00;98940.03;5025460;27;100226;-62
2020/12/06 08:31:01;;;;;;;26.10;20.67;;;5.60;99.90;;;4.52;100.00;98938.13;5024423;27;101728;-61
2020/12/06 08:33:29;;;;;;;29.20;21.87;;;5.80;99.90;;;4.53;100.00;98939.81;5025756;27;100250;-62
2020/12/06 08:35:56;;;;;;;24.87;19.63;;;5.80;99.90;;;4.57;100.00;98930.56;5025758;27;100152;-61
2020/12/06 08:38:26;;;;;;;24.83;19.57;;;5.90;99.90;;;4.58;100.00;98932.22;5025739;27;99964;-62
2020/12/06 08:41:08;;;;;;;22.67;18.37;;;6.00;99.90;;;4.73;100.00;98920.09;5024670;27;102368;-62
2020/12/06 08:43:49;;;;;;;25.43;20.53;;;6.10;99.90;;;4.91;100.00;98914.75;5022488;27;101171;-62
2020/12/06 08:46:17;;;;;;;28.73;23.03;;;6.10;99.90;;;5.16;100.00;98903.31;5025010;27;100220;-62
2020/12/06 08:48:45;;;;;;;33.37;21.87;;;6.60;99.90;;;5.28;100.00;98894.09;5025519;27;100031;-62
2020/12/06 08:51:26;;;;;;;25.40;19.60;;;6.70;99.90;;;5.24;100.00;98899.88;5024466;27;100704;-62
2020/12/06 08:53:52;;;;;;;27.50;22.03;;;6.90;99.90;;;5.33;100.00;98905.03;5024723;27;101056;-62
2020/12/06 08:56:31;;;;;;;23.13;17.90;;;7.10;99.90;;;5.46;100.00;98903.78;5024469;27;100502;-64
2020/12/06 08:59:04;;;;;;;27.93;20.80;;;7.60;99.90;;;5.51;100.00;98901.50;5025348;27;99898;-61
2020/12/06 09:01:30;;;;;;;25.33;18.70;;;7.40;99.90;;;5.54;100.00;98894.06;5025438;27;100739;-62
2020/12/06 09:03:57;;;;;;;28.70;24.03;;;7.40;99.90;;;5.63;100.00;98886.94;5025031;27;100202;-62
2020/12/06 09:06:24;;;;;;;23.77;21.17;;;7.50;99.90;;;5.82;100.00;98880.50;5025488;27;100154;-62
2020/12/06 09:08:50;;;;;;;21.90;16.37;;;7.60;99.90;;;5.92;100.00;98873.28;5025239;27;100328;-63
2020/12/06 09:11:18;;;;;;;19.73;17.30;;;7.70;99.90;;;6.04;100.00;98879.94;5024628;27;100694;-62
2020/12/06 09:13:46;;;;;;;22.00;18.07;;;7.80;99.90;;;6.07;100.00;98879.59;5025506;27;100584;-64
2020/12/06 09:16:13;;;;;;;24.50;18.33;;;8.00;99.90;;;5.97;100.00;98881.59;5024277;27;100089;-62
2020/12/06 09:18:41;;;;;;;26.63;20.00;;;7.80;99.90;;;5.95;100.00;98875.59;5025239;27;100089;-63
2020/12/06 09:21:08;;;;;;;20.17;16.93;;;7.70;99.90;;;5.93;100.00;98862.50;5023578;27;101821;-63
2020/12/06 09:23:36;;;;;;;20.40;16.53;;;7.90;99.90;;;5.83;100.00;98850.31;5024811;27;100667;-63
2020/12/06 09:26:04;;;;;;;20.00;17.20;;;7.90;99.90;;;5.76;100.00;98845.69;5024832;27;100277;-62
2020/12/06 09:28:31;;;;;;;19.17;15.53;;;7.90;99.90;;;5.74;100.00;98839.69;5025643;27;100099;-63
2020/12/06 09:30:59;;;;;;;22.40;16.40;;;8.00;99.90;;;5.85;100.00;98838.56;5024672;27;100494;-62
2020/12/06 09:33:26;;;;;;;19.37;17.27;;;8.20;99.90;;;5.91;100.00;98839.78;5025001;27;100823;-61
2020/12/06 09:35:53;;;;;;;21.17;17.03;;;8.50;99.90;;;6.10;100.00;98850.06;5024399;27;99957;-63
2020/12/06 09:38:19;;;;;;;19.90;16.73;;;8.60;99.90;;;6.12;100.00;98846.25;5021416;27;100300;-62
2020/12/06 09:40:46;;;;;;;20.23;15.97;;;8.80;99.90;;;6.34;100.00;98849.25;5014986;27;101614;-62
2020/12/06 09:43:12;;;;;;;19.90;16.60;;;8.90;99.90;;;6.57;100.00;98858.22;5023915;27;101166;-62
2020/12/06 09:45:40;;;;;;;17.90;15.00;;;9.20;99.90;;;6.89;100.00;98854.69;5023925;27;100228;-62
2020/12/06 09:48:08;;;;;;;16.43;13.47;;;9.30;99.90;;;7.00;100.00;98864.97;5024801;27;100028;-62
2020/12/06 09:50:34;;;;;;;16.93;13.13;;;10.70;99.90;;;6.98;100.00;98861.63;5023638;27;101505;-62
2020/12/06 09:53:01;;;;;;;17.37;14.83;;;9.90;99.90;;;7.09;100.00;98855.97;5024596;27;100151;-63
2020/12/06 09:55:27;;;;;;;16.40;13.93;;;10.20;99.90;;;6.98;100.00;98858.16;5025366;27;100297;-62
2020/12/06 09:57:53;;;;;;;17.23;14.43;;;10.30;99.90;;;7.04;100.00;98868.94;5028603;27;100001;-63
2020/12/06 10:00:20;;;;;;;18.37;14.53;;;10.60;99.90;;;7.23;100.00;98873.03;5026811;27;101367;-62
2020/12/06 10:02:46;;;;;;;25.67;20.47;;;11.50;99.90;;;7.24;100.00;98879.19;5028301;27;100396;-63
2020/12/06 10:05:14;;;;;;;23.00;20.03;;;11.20;99.90;;;7.28;100.00;98886.69;5027307;27;100017;-64
2020/12/06 10:07:40;;;;;;;17.30;15.00;;;11.50;99.90;;;7.47;100.00;98890.75;5028567;27;99961;-62
2020/12/06 10:10:08;;;;;;;13.47;11.70;;;12.00;99.90;;;7.70;100.00;98891.66;5026931;27;100994;-64
2020/12/06 10:12:35;;;;;;;16.57;13.50;;;12.30;99.90;;;7.80;100.00;98894.09;5027522;27;101428;-63